Varma — OGOE — position and weather

sailwx.info

Track history (hours):
 
Tides and Currents Weather Stations Pressure Air Temp Water Temp Dewpoint Dewpoint Depression Visibility Wind Speed Wind Dir Waves Ship Positions

Varma

Last reported at 2017-Oct-22 08:08 UTC. Time now 2017-Nov-24 14:59 UTC.
Position N 63°13' E 020°33'.
Warning: this ship's position is 33 days out of date.

Length 48 m; draft 4.2 m.

Type: Tug. MMSI: 230301000.

Date/timePositionNaut miles runAvg speedWind from/ knotsBaromVisibWave heightAir tempDewpointWater temp
2017-Oct-22 08:08N 63°13' E 020°33'1 8.6
2017-Oct-22 08:00N 63°12' E 020°33'4 8.5
2017-Oct-22 07:30N 63°08' E 020°34'8 8.6
2017-Oct-22 06:37N 62°60' E 020°36'1 8.6
2017-Oct-22 06:29N 62°59' E 020°36'4 8.6
2017-Oct-22 06:00N 62°55' E 020°37'100 8.9
2017-Oct-21 18:46N 61°16' E 021°02'2 8.7
2017-Oct-21 18:30N 61°13' E 021°03'4 8.8
2017-Oct-21 18:00N 61°09' E 021°04'4 8.8
2017-Oct-21 17:30N 61°05' E 021°05'4 8.4
2017-Oct-21 17:00N 61°01' E 021°09'  
Track history (hours):
 
Tides and Currents Weather Stations Pressure Air Temp Water Temp Dewpoint Dewpoint Depression Visibility Wind Speed Wind Dir Waves Ship Positions

Varma

Last reported at 2017-Oct-22 08:08 UTC. Time now 2017-Nov-24 14:59 UTC.
Position N 63°13' E 020°33'.
Warning: this ship's position is 33 days out of date.

Length 48 m; draft 4.2 m.

Type: Tug. MMSI: 230301000.

Date/timePositionNaut miles runAvg speedWind from/ knotsBaromVisibWave heightAir tempDewpointWater temp
2017-Oct-22 08:08N 63°13' E 020°33'1 8.6
2017-Oct-22 08:00N 63°12' E 020°33'4 8.5
2017-Oct-22 07:30N 63°08' E 020°34'8 8.6
2017-Oct-22 06:37N 62°60' E 020°36'1 8.6
2017-Oct-22 06:29N 62°59' E 020°36'4 8.6
2017-Oct-22 06:00N 62°55' E 020°37'100 8.9
2017-Oct-21 18:46N 61°16' E 021°02'2 8.7
2017-Oct-21 18:30N 61°13' E 021°03'4 8.8
2017-Oct-21 18:00N 61°09' E 021°04'4 8.8
2017-Oct-21 17:30N 61°05' E 021°05'4 8.4
2017-Oct-21 17:00N 61°01' E 021°09'  

Dump ship's entire track history